Time;durP1;ratioP1;P1;durP2;ratioP2;P2;SDS_P1;SDS_P2;PMS_P1;PMS_P2;Temp;Humidity;BMP_temperature;BMP_pressure;BME280_temperature;BME280_humidity;BME280_pressure;Samples;Min_cycle;Max_cycle;Signal;HPM_P1;HPM_P2
2023/09/22 00:01:25;;;;;;;6.03;3.28;;;;;;;14.79;100.00;99305.78;5014966;28;20054;-84
2023/09/22 00:03:52;;;;;;;5.35;3.25;;;;;;;14.82;100.00;99286.91;5022125;28;20061;-81
2023/09/22 00:06:22;;;;;;;8.10;3.60;;;;;;;14.68;100.00;99285.41;5022063;28;20076;-82
2023/09/22 00:08:48;;;;;;;7.60;3.60;;;;;;;14.60;100.00;99281.22;5021232;28;20476;-82
2023/09/22 00:11:17;;;;;;;8.00;3.70;;;;;;;14.59;100.00;99284.06;5020238;28;20463;-82
2023/09/22 00:13:59;;;;;;;4.90;3.33;;;;;;;14.47;100.00;99280.53;5037167;22;20037;-79
2023/09/22 00:17:19;;;;;;;8.30;3.65;;;;;;;14.43;100.00;99290.66;5044413;28;20471;-81
2023/09/22 00:19:46;;;;;;;6.85;3.75;;;;;;;14.34;100.00;99283.22;5038624;28;20183;-81
2023/09/22 00:22:17;;;;;;;5.75;3.55;;;;;;;14.32;100.00;99295.78;5031059;28;20058;-81
2023/09/22 00:24:47;;;;;;;5.93;3.85;;;;;;;14.25;100.00;99304.50;5043601;28;20059;-82
2023/09/22 00:27:21;;;;;;;5.47;3.65;;;;;;;14.21;100.00;99303.31;5046711;28;20076;-83
2023/09/22 00:29:51;;;;;;;6.60;3.58;;;;;;;14.16;100.00;99297.91;5047596;28;20113;-81
2023/09/22 00:32:29;;;;;;;6.78;4.10;;;;;;;14.06;100.00;99294.94;5043463;28;20056;-80
2023/09/22 00:34:56;;;;;;;10.35;4.32;;;;;;;14.01;100.00;99292.13;5042310;28;20056;-83
2023/09/22 00:37:23;;;;;;;6.40;3.95;;;;;;;13.95;100.00;99283.25;5042196;28;20049;-82
2023/09/22 00:40:03;;;;;;;7.00;3.63;;;;;;;13.98;100.00;99289.09;5034553;28;20068;-81
2023/09/22 00:42:41;;;;;;;;;;;;;;;13.97;100.00;99306.69;5041472;28;20050;-80
2023/09/22 00:45:14;;;;;;;10.43;3.95;;;;;;;13.90;100.00;99290.16;5041933;28;19921;-82
2023/09/22 00:47:59;;;;;;;5.00;3.78;;;;;;;13.83;100.00;99302.50;5043915;28;20045;-81
2023/09/22 00:50:29;;;;;;;7.70;3.78;;;;;;;13.76;100.00;99301.72;5029924;28;20058;-80
2023/09/22 00:52:59;;;;;;;4.15;3.03;;;;;;;13.83;100.00;99315.66;5026608;28;20137;-80
2023/09/22 00:55:32;;;;;;;6.97;3.90;;;;;;;13.76;100.00;99310.44;5042600;28;20061;-80
2023/09/22 00:58:10;;;;;;;6.60;3.35;;;;;;;13.85;100.00;99326.78;5029867;28;20041;-82
2023/09/22 01:00:58;;;;;;;4.53;3.72;;;;;;;13.83;100.00;99326.19;5007146;28;20045;-83
2023/09/22 01:03:29;;;;;;;5.38;3.78;;;;;;;13.74;100.00;99324.78;5010538;28;20050;-82
2023/09/22 01:06:09;;;;;;;7.35;3.70;;;;;;;13.70;100.00;99319.16;5015175;28;20047;-83
2023/09/22 01:08:44;;;;;;;5.70;3.65;;;;;;;13.59;100.00;99318.00;5030083;28;20137;-84
2023/09/22 01:13:58;;;;;;;6.05;3.60;;;;;;;13.65;100.00;99341.84;5038802;28;20082;-82
2023/09/22 01:16:28;;;;;;;7.50;3.90;;;;;;;13.49;100.00;99317.59;5026038;28;20058;-83
2023/09/22 01:19:05;;;;;;;5.50;3.40;;;;;;;13.47;100.00;99316.19;5025690;28;20105;-83
2023/09/22 01:21:46;;;;;;;8.32;3.63;;;;;;;13.41;100.00;99309.94;5027744;28;20060;-84
2023/09/22 01:24:25;;;;;;;5.00;3.88;;;;;;;13.42;100.00;99319.44;5037597;28;20067;-83
2023/09/22 01:27:03;;;;;;;5.50;4.03;;;;;;;13.49;100.00;99328.13;5031648;28;20324;-82
2023/09/22 01:29:43;;;;;;;5.15;3.90;;;;;;;13.30;100.00;99310.56;5021752;28;20050;-84
2023/09/22 01:32:13;;;;;;;4.85;3.78;;;;;;;13.38;100.00;99336.63;5021518;28;20093;-84
2023/09/22 01:34:40;;;;;;;6.22;3.67;;;;;;;13.24;100.00;99337.66;5033171;28;20065;-84
2023/09/22 01:37:08;;;;;;;5.65;3.85;;;;;;;13.24;100.00;99332.41;5042386;28;20045;-84
2023/09/22 01:39:40;;;;;;;4.93;3.50;;;;;;;13.19;100.00;99340.91;5022958;28;20053;-84
2023/09/22 01:42:12;;;;;;;7.93;3.97;;;;;;;13.16;100.00;99337.91;5024162;28;20061;-83
2023/09/22 01:44:41;;;;;;;5.88;3.60;;;;;;;13.17;100.00;99340.31;5034449;28;20049;-82
2023/09/22 01:47:09;;;;;;;10.82;3.80;;;;;;;13.22;100.00;99342.34;5026078;28;20050;-83
2023/09/22 01:49:36;;;;;;;4.88;3.70;;;;;;;13.21;100.00;99343.34;5004637;28;20054;-83
2023/09/22 01:52:03;;;;;;;8.38;3.80;;;;;;;13.12;100.00;99334.84;5004032;28;20042;-82
2023/09/22 01:54:34;;;;;;;6.40;4.15;;;;;;;13.00;100.00;99335.66;5025521;28;20053;-81
2023/09/22 01:57:01;;;;;;;5.05;3.95;;;;;;;13.03;100.00;99337.88;5043246;28;20396;-82
2023/09/22 01:59:35;;;;;;;5.53;3.70;;;;;;;12.91;100.00;99333.22;5030697;28;20058;-83
2023/09/22 02:02:19;;;;;;;6.50;3.83;;;;;;;12.82;100.00;99318.69;5022431;28;20049;-82
2023/09/22 02:04:59;;;;;;;6.25;4.10;;;;;;;12.98;100.00;99345.53;5028978;28;20132;-83
2023/09/22 02:07:33;;;;;;;5.30;3.70;;;;;;;12.92;100.00;99339.28;5028281;28;20084;-83
2023/09/22 02:10:04;;;;;;;6.05;3.80;;;;;;;12.96;100.00;99336.06;5023556;28;20042;-81
2023/09/22 02:12:31;;;;;;;7.30;3.40;;;;;;;12.85;100.00;99331.41;5023391;28;20078;-81
2023/09/22 02:15:10;;;;;;;5.55;3.63;;;;;;;12.82;100.00;99336.25;5040504;28;20053;-81
2023/09/22 02:17:50;;;;;;;6.63;3.65;;;;;;;12.87;100.00;99336.44;5038828;28;20076;-83
2023/09/22 02:20:41;;;;;;;5.05;3.90;;;;;;;12.94;100.00;99343.31;5021066;28;20141;-83
2023/09/22 02:23:10;;;;;;;3.88;3.25;;;;;;;12.85;100.00;99334.03;5016720;28;20052;-84
2023/09/22 02:25:43;;;;;;;5.82;3.08;;;;;;;13.06;100.00;99329.59;5017834;28;20061;-81
2023/09/22 02:28:32;;;;;;;3.97;3.50;;;;;;;12.91;100.00;99311.41;5024302;28;20148;-81
2023/09/22 02:31:14;;;;;;;4.90;3.55;;;;;;;13.12;100.00;99328.78;5022857;28;20042;-83
2023/09/22 02:33:49;;;;;;;3.78;3.28;;;;;;;13.12;100.00;99329.59;5008845;28;20460;-83
2023/09/22 02:36:27;;;;;;;5.10;3.60;;;;;;;13.03;100.00;99335.25;5012729;28;20058;-84
2023/09/22 02:39:03;;;;;;;5.75;3.30;;;;;;;12.90;100.00;99334.22;5025324;28;20072;-82
2023/09/22 02:41:33;;;;;;;8.45;3.40;;;;;;;12.89;100.00;99345.75;5019018;28;20038;-81
2023/09/22 02:44:18;;;;;;;5.50;3.67;;;;;;;12.80;100.00;99341.69;5025375;28;20073;-86
2023/09/22 02:46:57;;;;;;;11.40;3.55;;;;;;;12.90;100.00;99352.59;5030708;28;20162;-84
2023/09/22 02:49:30;;;;;;;5.10;3.65;;;;;;;12.80;100.00;99331.19;5026597;28;20603;-84
2023/09/22 02:52:30;;;;;;;;;;;;;;;12.96;100.00;99345.75;5044362;28;20053;-83
2023/09/22 02:58:46;;;;;;;8.00;3.60;;;;;;;12.78;100.00;99320.09;5035808;28;20050;-84
2023/09/22 03:01:30;;;;;;;5.95;3.25;;;;;;;12.80;100.00;99327.75;5021499;28;20060;-82
2023/09/22 03:04:00;;;;;;;4.13;3.28;;;;;;;12.69;100.00;99334.44;5011446;28;20416;-83
2023/09/22 03:06:45;;;;;;;4.43;3.60;;;;;;;12.73;100.00;99346.16;5021213;28;20061;-83
2023/09/22 03:09:19;;;;;;;7.63;3.50;;;;;;;12.55;100.00;99328.38;5022882;28;20061;-82
2023/09/22 03:11:47;;;;;;;5.20;3.67;;;;;;;12.64;100.00;99334.25;5023264;28;20469;-86
2023/09/22 03:14:43;;;;;;;5.93;3.53;;;;;;;12.66;100.00;99347.97;5014365;28;20154;-83
2023/09/22 03:18:00;;;;;;;5.40;3.47;;;;;;;12.58;100.00;99327.16;5023313;28;20061;-81
2023/09/22 03:20:41;;;;;;;8.05;3.90;;;;;;;12.73;100.00;99319.91;5024978;28;20071;-82
2023/09/22 03:26:52;;;;;;;6.20;3.60;;;;;;;12.84;100.00;99332.41;4985997;28;20073;-81
2023/09/22 03:40:09;;;;;;;7.93;3.55;;;;;;;12.69;100.00;99296.91;5027926;28;20054;-83
2023/09/22 03:49:12;;;;;;;5.13;3.53;;;;;;;12.94;100.00;99322.31;5024330;22;20214;-82
2023/09/22 03:52:26;;;;;;;5.70;3.53;;;;;;;13.02;100.00;99323.94;5005219;28;20049;-82
2023/09/22 03:55:16;;;;;;;8.88;3.13;;;;;;;13.03;100.00;99327.38;5020579;28;20050;-83
2023/09/22 03:58:07;;;;;;;5.90;3.70;;;;;;;13.02;100.00;99325.75;5004318;28;20066;-84
2023/09/22 04:00:47;;;;;;;6.57;3.70;;;;;;;12.93;100.00;99328.56;5008779;28;20105;-83
2023/09/22 04:03:18;;;;;;;4.95;3.15;;;;;;;12.81;100.00;99311.81;5027176;23;20046;-81
2023/09/22 04:05:45;;;;;;;9.45;3.78;;;;;;;12.73;100.00;99309.41;5019398;28;20061;-80
2023/09/22 04:08:12;;;;;;;8.55;3.80;;;;;;;12.75;100.00;99306.59;5019394;28;20058;-81
2023/09/22 04:10:41;;;;;;;6.68;4.00;;;;;;;12.84;100.00;99305.34;5021860;28;20113;-83
2023/09/22 04:13:11;;;;;;;7.55;4.15;;;;;;;12.70;100.00;99298.50;5009805;28;20049;-83
2023/09/22 04:15:38;;;;;;;6.78;4.30;;;;;;;12.74;100.00;99328.59;5011258;28;20042;-81
2023/09/22 04:18:06;;;;;;;5.57;4.10;;;;;;;12.68;100.00;99326.78;5005855;28;20065;-81
2023/09/22 04:20:35;;;;;;;7.40;3.70;;;;;;;12.71;100.00;99332.44;5008291;28;20042;-82
2023/09/22 04:23:03;;;;;;;6.88;4.15;;;;;;;12.69;100.00;99337.06;4991827;28;20050;-80
2023/09/22 04:25:33;;;;;;;8.27;4.32;;;;;;;12.69;100.00;99342.31;4999280;28;20141;-84
2023/09/22 04:28:08;;;;;;;8.15;4.18;;;;;;;12.73;100.00;99342.72;4992851;28;20129;-83
2023/09/22 04:30:36;;;;;;;8.85;4.40;;;;;;;12.83;100.00;99351.78;5010099;28;20077;-81
2023/09/22 04:33:03;;;;;;;8.38;4.60;;;;;;;12.96;100.00;99359.69;5003827;28;20125;-83
2023/09/22 04:35:32;;;;;;;6.75;4.63;;;;;;;12.90;100.00;99362.31;5008631;28;20111;-82
2023/09/22 04:37:59;;;;;;;8.35;4.15;;;;;;;12.91;100.00;99366.53;5016476;28;20046;-82
2023/09/22 04:40:29;;;;;;;7.30;4.18;;;;;;;13.03;100.00;99382.50;4993919;28;20129;-82
2023/09/22 04:42:56;;;;;;;9.02;4.50;;;;;;;12.96;100.00;99377.25;5010017;28;20488;-82
2023/09/22 04:45:24;;;;;;;7.55;4.22;;;;;;;13.06;100.00;99379.47;5004929;28;20081;-83
2023/09/22 04:47:52;;;;;;;8.02;4.57;;;;;;;13.05;100.00;99373.41;5013712;28;20050;-82
2023/09/22 04:50:19;;;;;;;7.15;4.15;;;;;;;13.15;100.00;99365.13;5005759;28;20055;-83
2023/09/22 04:52:46;;;;;;;6.32;3.95;;;;;;;13.09;100.00;99364.13;5006616;28;20058;-83
2023/09/22 04:55:16;;;;;;;9.38;4.15;;;;;;;13.19;100.00;99369.81;5004432;28;20377;-81
2023/09/22 04:57:43;;;;;;;7.75;4.32;;;;;;;13.17;100.00;99368.41;5002381;28;20145;-82
2023/09/22 05:00:16;;;;;;;9.30;4.20;;;;;;;13.11;100.00;99366.56;5005920;28;20110;-84
2023/09/22 05:02:44;;;;;;;;;;;;;;;13.12;100.00;99365.53;4998168;28;20053;-81
2023/09/22 05:05:11;;;;;;;7.22;4.00;;;;;;;13.08;100.00;99377.47;5005052;28;19922;-81
2023/09/22 05:07:38;;;;;;;7.13;4.30;;;;;;;12.98;100.00;99390.19;4997489;28;20050;-83
2023/09/22 05:10:06;;;;;;;9.57;4.25;;;;;;;12.93;100.00;99393.41;4989077;28;20046;-82
2023/09/22 05:12:32;;;;;;;8.10;4.35;;;;;;;12.84;100.00;99397.22;4992857;28;20561;-83
2023/09/22 05:15:00;;;;;;;9.27;4.60;;;;;;;12.82;100.00;99415.81;4992484;28;20054;-82
2023/09/22 05:17:27;;;;;;;6.20;4.88;;;;;;;12.81;100.00;99411.56;4998159;28;20132;-82
2023/09/22 05:19:55;;;;;;;9.43;5.80;;;;;;;12.77;100.00;99410.34;4994258;28;20077;-83
2023/09/22 05:22:22;;;;;;;10.85;5.30;;;;;;;12.70;100.00;99408.75;5009410;28;20222;-82
2023/09/22 05:24:49;;;;;;;7.55;5.50;;;;;;;12.73;100.00;99424.91;5001155;28;20505;-83
2023/09/22 05:27:16;;;;;;;6.85;5.00;;;;;;;12.69;100.00;99421.06;4994115;28;20428;-82
2023/09/22 05:29:43;;;;;;;7.20;6.13;;;;;;;12.69;100.00;99402.69;5008383;28;20048;-84
2023/09/22 05:32:10;;;;;;;10.50;6.05;;;;;;;12.70;100.00;99403.50;5003814;28;20484;-82
2023/09/22 05:34:38;;;;;;;9.32;5.45;;;;;;;12.66;100.00;99408.34;4992002;28;20481;-83
2023/09/22 05:37:06;;;;;;;7.97;5.30;;;;;;;12.67;100.00;99403.88;5008030;28;20054;-81
2023/09/22 05:39:38;;;;;;;7.70;5.10;;;;;;;12.67;100.00;99415.19;5005766;28;20195;-81
2023/09/22 05:42:10;;;;;;;8.10;5.13;;;;;;;12.68;100.00;99416.81;4997075;28;20050;-81
2023/09/22 05:44:43;;;;;;;7.97;4.15;;;;;;;12.73;100.00;99410.97;4993795;28;20053;-80
2023/09/22 05:47:12;;;;;;;15.00;4.43;;;;;;;12.67;100.00;99420.44;4997512;28;20050;-81
2023/09/22 05:49:42;;;;;;;6.95;4.30;;;;;;;12.71;100.00;99416.41;4996976;28;20041;-81
2023/09/22 05:52:11;;;;;;;6.20;4.07;;;;;;;12.71;100.00;99415.59;4995905;28;20042;-80
2023/09/22 05:54:38;;;;;;;7.25;4.22;;;;;;;12.75;100.00;99427.34;4991174;28;20080;-81
2023/09/22 05:57:06;;;;;;;7.00;3.83;;;;;;;12.84;100.00;99437.41;4995769;28;20058;-81
2023/09/22 05:59:37;;;;;;;7.35;4.30;;;;;;;12.81;100.00;99426.50;5000248;28;20046;-82
2023/09/22 06:02:10;;;;;;;8.88;3.90;;;;;;;12.81;100.00;99416.81;4983574;28;20126;-81
2023/09/22 06:04:39;;;;;;;7.88;4.00;;;;;;;12.82;100.00;99412.38;4997505;28;20061;-80
2023/09/22 06:07:14;;;;;;;9.65;4.28;;;;;;;12.84;100.00;99419.03;4998856;28;20046;-80
2023/09/22 06:09:45;;;;;;;7.50;3.95;;;;;;;12.66;100.00;99424.06;4987663;28;20191;-80
2023/09/22 06:26:32;;;;;;;9.55;5.05;;;;;;;13.14;100.00;99443.13;4778033;29;20100;-82
2023/09/22 07:50:29;;;;;;;3.50;2.63;;;;;;;18.87;81.10;99418.56;4915366;29;20502;-82
2023/09/22 08:03:47;;;;;;;5.18;2.20;;;;;;;20.12;74.97;99402.06;4783495;30;20107;-82
2023/09/22 08:06:41;;;;;;;3.47;2.22;;;;;;;19.99;75.63;99426.34;4767925;29;20066;-82
2023/09/22 08:16:07;;;;;;;4.10;2.15;;;;;;;18.79;79.82;99462.16;4875777;29;19931;-82
2023/09/22 09:06:10;;;;;;;5.00;2.58;;;;;;;21.19;67.15;99369.34;5003156;23;20065;-88
2023/09/22 09:08:36;;;;;;;4.15;2.22;;;;;;;21.83;66.77;99381.66;5035515;28;20084;-87
2023/09/22 09:11:07;;;;;;;3.72;2.22;;;;;;;21.21;66.58;99366.44;5019414;28;20058;-85
2023/09/22 09:13:35;;;;;;;6.53;2.63;;;;;;;20.75;67.59;99383.88;5015035;28;20050;-86
2023/09/22 09:16:06;;;;;;;3.92;2.33;;;;;;;20.42;68.17;99392.84;5024706;28;20065;-86
2023/09/22 09:18:43;;;;;;;2.13;1.70;;;;;;;19.85;68.44;99398.53;5067425;22;20045;-86
2023/09/22 09:21:43;;;;;;;4.50;1.98;;;;;;;19.36;69.46;99405.56;5043312;28;20139;-86
2023/09/22 09:24:32;;;;;;;3.13;1.83;;;;;;;19.13;70.16;99402.03;5025731;28;20048;-86
2023/09/22 09:27:14;;;;;;;3.85;2.53;;;;;;;18.76;71.36;99412.28;5051832;28;20055;-84
2023/09/22 09:29:50;;;;;;;2.53;1.92;;;;;;;19.00;71.31;99404.19;5050745;28;20067;-85
2023/09/22 09:32:25;;;;;;;6.32;2.30;;;;;;;18.82;71.17;99407.88;5061474;22;20395;-81
2023/09/22 09:34:52;;;;;;;6.68;2.17;;;;;;;18.64;71.95;99429.28;5043863;28;20324;-81
2023/09/22 09:37:21;;;;;;;4.30;1.90;;;;;;;18.42;73.03;99426.47;5046523;28;20136;-80
2023/09/22 09:39:50;;;;;;;4.22;2.03;;;;;;;18.11;73.72;99435.66;5035945;28;20053;-80
2023/09/22 09:42:18;;;;;;;5.80;3.00;;;;;;;17.88;73.98;99432.03;5034200;28;20053;-81
2023/09/22 09:44:49;;;;;;;2.92;2.17;;;;;;;17.85;74.45;99437.78;5019543;28;20058;-81
2023/09/22 09:47:24;;;;;;;5.85;2.00;;;;;;;17.97;74.27;99434.28;5017252;28;20068;-81
2023/09/22 09:49:53;;;;;;;3.95;1.85;;;;;;;17.99;74.20;99438.31;5021051;28;20461;-81
2023/09/22 09:52:26;;;;;;;2.95;2.10;;;;;;;17.88;74.70;99441.81;5019516;28;20064;-81
2023/09/22 09:55:07;;;;;;;6.55;2.03;;;;;;;17.95;74.37;99442.50;5022588;28;20171;-81
2023/09/22 09:57:37;;;;;;;4.72;2.28;;;;;;;17.99;74.44;99432.22;5023709;28;20100;-81
2023/09/22 10:00:12;;;;;;;4.68;2.00;;;;;;;17.85;73.90;99419.25;5052771;28;20064;-81
2023/09/22 10:02:42;;;;;;;3.47;2.30;;;;;;;17.97;75.35;99440.38;5044760;28;20046;-81
2023/09/22 10:05:10;;;;;;;2.35;1.63;;;;;;;17.87;73.60;99413.72;5042151;28;20052;-81
2023/09/22 10:07:39;;;;;;;4.63;2.15;;;;;;;18.08;72.16;99402.50;5019208;28;20077;-81
2023/09/22 10:10:09;;;;;;;2.42;1.45;;;;;;;18.56;71.53;99407.38;5021854;28;20499;-81
2023/09/22 10:12:36;;;;;;;2.60;1.80;;;;;;;18.89;70.35;99406.69;5015160;28;20054;-81
2023/09/22 10:15:04;;;;;;;5.90;1.98;;;;;;;18.59;70.39;99395.50;5015904;28;20114;-81
2023/09/22 10:17:33;;;;;;;3.53;1.83;;;;;;;19.23;68.87;99396.06;5021669;28;20088;-81
2023/09/22 10:20:06;;;;;;;3.67;2.20;;;;;;;19.66;67.81;99399.91;5006548;28;20145;-81
2023/09/22 10:22:32;;;;;;;2.90;1.75;;;;;;;19.89;67.60;99402.31;5024492;28;20060;-81
2023/09/22 10:25:24;;;;;;;3.42;1.70;;;;;;;19.64;66.46;99394.84;5037062;28;20117;-82
2023/09/22 10:27:55;;;;;;;4.33;1.80;;;;;;;19.65;66.99;99401.75;5020515;28;20103;-81
2023/09/22 10:30:23;;;;;;;3.53;1.85;;;;;;;19.12;70.28;99434.06;5017903;28;20050;-81
2023/09/22 10:33:34;;;;;;;4.45;2.00;;;;;;;19.31;69.56;99430.16;5033677;23;20057;-81
2023/09/22 10:36:09;;;;;;;3.90;1.92;;;;;;;19.63;69.20;99426.91;5018332;28;20351;-82
2023/09/22 10:38:56;;;;;;;5.88;2.10;;;;;;;19.77;68.20;99428.19;5017931;28;20045;-82
2023/09/22 10:41:24;;;;;;;4.35;1.73;;;;;;;19.81;67.03;99418.69;5029489;28;20049;-81
2023/09/22 10:43:58;;;;;;;4.97;2.47;;;;;;;19.83;66.88;99416.59;5006981;28;20057;-81
2023/09/22 10:52:42;;;;;;;3.13;2.22;;;;;;;19.63;67.41;99422.41;5032135;28;20046;-85
2023/09/22 10:58:21;;;;;;;4.03;2.20;;;;;;;19.48;66.18;99407.03;5028815;28;20054;-84
2023/09/22 11:01:30;;;;;;;5.10;2.38;;;;;;;19.19;65.99;99405.56;5025012;28;20076;-84
2023/09/22 11:04:13;;;;;;;6.80;1.83;;;;;;;19.26;66.62;99424.75;5027285;28;20084;-84
2023/09/22 11:10:15;;;;;;;7.88;2.20;;;;;;;19.31;66.31;99414.25;5006663;28;20458;-82
2023/09/22 11:19:08;;;;;;;3.13;2.20;;;;;;;19.32;65.33;99410.53;4929390;29;20087;-82
2023/09/22 11:21:48;;;;;;;8.75;2.47;;;;;;;19.32;67.50;99433.59;4995968;28;20057;-84
2023/09/22 11:25:09;;;;;;;5.25;2.38;;;;;;;19.27;67.71;99442.28;5029802;28;20061;-86
2023/09/22 11:27:43;;;;;;;7.18;2.65;;;;;;;19.40;67.48;99449.91;5029867;28;20069;-85
2023/09/22 11:30:20;;;;;;;5.45;2.50;;;;;;;20.03;66.13;99435.41;5026738;28;20096;-86
2023/09/22 11:32:48;;;;;;;7.88;2.65;;;;;;;20.18;65.36;99430.31;5025136;28;20050;-83
2023/09/22 11:35:40;;;;;;;3.28;2.15;;;;;;;20.37;65.05;99428.09;5029642;28;20087;-84
2023/09/22 11:38:23;;;;;;;24.48;4.32;;;;;;;20.28;66.00;99439.44;5026926;28;20050;-85
2023/09/22 11:41:02;;;;;;;3.88;2.30;;;;;;;20.62;64.99;99435.59;5013194;28;20041;-86
2023/09/22 11:43:29;;;;;;;5.10;2.60;;;;;;;20.72;63.40;99417.09;5025490;28;20056;-85
2023/09/22 11:46:11;;;;;;;3.97;2.40;;;;;;;20.19;62.82;99423.94;5042633;28;20045;-85
2023/09/22 11:48:51;;;;;;;3.67;2.28;;;;;;;20.21;64.18;99443.09;5031997;28;20042;-85
2023/09/22 11:51:18;;;;;;;5.03;2.30;;;;;;;20.47;63.58;99443.38;5027196;28;20567;-85
2023/09/22 11:57:27;;;;;;;5.82;2.55;;;;;;;20.26;64.76;99452.16;5010324;28;20112;-85
2023/09/22 12:00:58;;;;;;;3.72;2.58;;;;;;;20.37;62.70;99414.00;5031983;28;20084;-87
2023/09/22 12:07:29;;;;;;;3.50;2.22;;;;;;;20.93;62.81;99430.53;4980318;28;20058;-84
2023/09/22 12:17:10;;;;;;;36.10;6.32;;;;;;;19.42;66.38;99465.56;4972972;22;20159;-83
2023/09/22 12:24:07;;;;;;;9.27;2.67;;;;;;;19.31;68.41;99447.91;4963627;28;20125;-85
2023/09/22 12:52:05;;;;;;;;;;;;;;;;;;;;;
2023/09/22 12:58:06;;;;;;;10.32;3.13;;;;;;;19.66;66.15;99399.91;5011109;28;20050;-80
2023/09/22 13:00:42;;;;;;;8.27;2.90;;;;;;;19.57;64.75;99402.16;5017222;28;20053;-80
2023/09/22 13:03:10;;;;;;;5.43;2.63;;;;;;;19.75;65.78;99419.66;5011572;28;20158;-80
2023/09/22 13:05:43;;;;;;;2.60;2.00;;;;;;;19.59;66.24;99399.25;5008903;28;20050;-80
2023/09/22 13:08:12;;;;;;;3.38;1.85;;;;;;;19.76;65.35;99394.72;5013077;28;20053;-80
2023/09/22 13:10:43;;;;;;;4.95;2.40;;;;;;;20.04;63.96;99389.22;5007711;28;20049;-80
2023/09/22 13:13:11;;;;;;;7.53;2.42;;;;;;;19.97;64.79;99407.19;5016979;28;20594;-80
2023/09/22 13:15:44;;;;;;;5.63;2.10;;;;;;;20.24;63.96;99396.63;5013722;28;20053;-80
2023/09/22 13:18:11;;;;;;;5.88;2.42;;;;;;;19.97;64.16;99401.06;5018342;28;20073;-80
2023/09/22 13:20:37;;;;;;;6.82;2.70;;;;;;;20.05;63.89;99393.50;5024589;28;20132;-80
2023/09/22 13:23:04;;;;;;;5.45;2.28;;;;;;;19.93;64.03;99384.84;5017993;28;20114;-80
2023/09/22 13:25:37;;;;;;;5.07;2.28;;;;;;;19.94;64.27;99386.44;5017203;28;20049;-80
2023/09/22 13:28:05;;;;;;;4.53;2.42;;;;;;;20.06;66.17;99413.69;5019478;28;20046;-79
2023/09/22 13:30:32;;;;;;;3.20;1.90;;;;;;;20.21;64.25;99387.31;5018462;28;20128;-80
2023/09/22 13:32:59;;;;;;;4.40;2.45;;;;;;;20.33;62.85;99371.19;5003669;28;20074;-79
2023/09/22 13:35:26;;;;;;;4.03;1.85;;;;;;;20.48;64.03;99390.00;5005192;28;20046;-80
2023/09/22 13:37:52;;;;;;;4.53;2.28;;;;;;;20.56;63.21;99378.13;5006212;28;20121;-81
2023/09/22 13:40:21;;;;;;;3.83;2.10;;;;;;;20.38;65.48;99397.06;5010161;28;20105;-81
2023/09/22 13:42:48;;;;;;;3.97;2.10;;;;;;;20.25;62.00;99362.91;5024461;28;20129;-80
2023/09/22 13:45:18;;;;;;;2.25;1.80;;;;;;;20.12;62.81;99364.09;5029731;28;20156;-80
2023/09/22 13:47:48;;;;;;;4.43;2.47;;;;;;;20.02;64.22;99385.22;5030630;28;20113;-80
2023/09/22 13:50:18;;;;;;;3.60;1.90;;;;;;;19.95;64.93;99382.75;5006972;28;20527;-80
2023/09/22 15:23:46;;;;;;;3.70;2.00;;;;;;;14.85;97.79;99541.94;5083486;23;20076;-81
2023/09/22 15:30:20;;;;;;;3.17;1.90;;;;;;;14.43;100.00;99537.25;4962362;28;20055;-85
2023/09/22 15:33:06;;;;;;;4.70;2.08;;;;;;;14.51;100.00;99542.28;4953986;29;20043;-85
2023/09/22 15:51:27;;;;;;;2.63;1.38;;;;;;;14.83;100.00;99551.88;4813326;29;20145;-80
2023/09/22 16:04:37;;;;;;;3.25;2.00;;;;;;;14.60;100.00;99523.44;4915898;29;20055;-79
2023/09/22 16:07:05;;;;;;;4.53;2.17;;;;;;;14.88;100.00;99541.53;4955385;28;20108;-79
2023/09/22 16:09:40;;;;;;;3.35;1.83;;;;;;;14.96;100.00;99550.19;5018850;22;20034;-84
2023/09/22 16:12:11;;;;;;;2.60;2.00;;;;;;;14.99;100.00;99534.78;5054934;28;20057;-81
2023/09/22 16:14:51;;;;;;;2.55;1.88;;;;;;;15.15;100.00;99515.81;5049108;28;20053;-82
2023/09/22 16:17:20;;;;;;;2.78;1.60;;;;;;;15.43;100.00;99535.72;5059327;28;20041;-81
2023/09/22 16:19:59;;;;;;;4.82;1.92;;;;;;;15.48;100.00;99544.59;5050000;28;20073;-81
2023/09/22 16:25:59;;;;;;;3.58;1.60;;;;;;;15.60;100.00;99524.44;5004746;28;20045;-81
2023/09/22 16:28:33;;;;;;;3.03;1.70;;;;;;;15.70;100.00;99545.06;5031081;28;20041;-82
2023/09/22 16:31:02;;;;;;;3.65;2.25;;;;;;;15.72;100.00;99523.75;5021330;28;20049;-82
2023/09/22 16:33:41;;;;;;;3.90;2.05;;;;;;;15.68;100.00;99522.56;5021302;28;20054;-82
2023/09/22 16:36:22;;;;;;;5.15;2.40;;;;;;;15.65;100.00;99526.44;5023367;28;20080;-82
2023/09/22 16:38:57;;;;;;;5.50;2.53;;;;;;;15.70;99.66;99533.69;5019955;28;20104;-80
2023/09/22 16:41:31;;;;;;;5.57;2.22;;;;;;;15.45;99.33;99516.03;5020931;28;20192;-82
2023/09/22 16:44:07;;;;;;;4.78;2.20;;;;;;;15.35;99.37;99528.06;5030067;28;20042;-81
2023/09/22 16:46:39;;;;;;;3.10;2.00;;;;;;;15.10;99.76;99520.13;5023565;28;20548;-81
2023/09/22 16:49:18;;;;;;;4.50;2.40;;;;;;;15.43;100.00;99531.25;5027169;28;20046;-82
2023/09/22 16:51:53;;;;;;;4.30;2.17;;;;;;;15.31;100.00;99540.06;5022271;28;20049;-82
2023/09/22 16:54:24;;;;;;;4.38;1.95;;;;;;;15.06;100.00;99547.94;5022770;28;20050;-82
2023/09/22 16:56:59;;;;;;;3.00;1.70;;;;;;;15.06;100.00;99537.38;5028349;28;20064;-81
2023/09/22 16:59:32;;;;;;;4.30;2.15;;;;;;;14.89;100.00;99534.44;5022085;28;20054;-81
2023/09/22 17:02:05;;;;;;;6.35;2.22;;;;;;;14.97;100.00;99554.44;5022660;28;20056;-81
2023/09/22 17:04:44;;;;;;;5.32;2.45;;;;;;;14.71;100.00;99539.56;5036173;28;20559;-84
2023/09/22 17:07:22;;;;;;;4.47;2.17;;;;;;;14.72;100.00;99568.31;5043944;28;20049;-84
2023/09/22 17:09:54;;;;;;;3.97;2.00;;;;;;;14.67;100.00;99572.59;5035970;28;20048;-83
2023/09/22 17:12:34;;;;;;;5.97;2.35;;;;;;;14.57;100.00;99571.22;5030267;28;20045;-81
2023/09/22 17:15:01;;;;;;;6.95;2.50;;;;;;;14.55;100.00;99551.41;5027809;28;20049;-81
2023/09/22 17:17:57;;;;;;;6.05;3.20;;;;;;;14.65;100.00;99575.44;5023935;28;20141;-81
2023/09/22 17:20:26;;;;;;;7.10;2.55;;;;;;;14.62;100.00;99594.31;5008561;28;20161;-82
2023/09/22 17:26:43;;;;;;;6.22;2.53;;;;;;;14.51;100.00;99601.00;5002754;28;20054;-81
2023/09/22 17:33:07;;;;;;;6.82;2.92;;;;;;;14.44;100.00;99591.50;4999392;28;20435;-82
2023/09/22 17:36:01;;;;;;;3.38;2.72;;;;;;;14.50;100.00;99590.69;5025339;28;20060;-81
2023/09/22 17:38:43;;;;;;;4.85;2.95;;;;;;;14.41;100.00;99598.00;5026923;28;20072;-82
2023/09/22 17:41:15;;;;;;;3.83;2.90;;;;;;;14.59;100.00;99615.78;5022174;28;20046;-82
2023/09/22 17:47:10;;;;;;;8.10;3.75;;;;;;;14.54;100.00;99613.75;5022005;28;20575;-81
2023/09/22 17:49:49;;;;;;;8.30;4.20;;;;;;;14.64;100.00;99637.03;5025321;28;20469;-81
2023/09/22 17:55:53;;;;;;;7.88;3.20;;;;;;;14.58;100.00;99622.06;4995774;28;20082;-85
2023/09/22 17:59:05;;;;;;;9.13;3.33;;;;;;;14.80;100.00;99641.84;4987240;28;20082;-82
2023/09/22 18:01:51;;;;;;;7.50;3.60;;;;;;;14.69;100.00;99631.13;4996665;28;20065;-82
2023/09/22 18:04:41;;;;;;;7.40;3.80;;;;;;;14.46;100.00;99615.81;4989966;28;20477;-82
2023/09/22 18:10:41;;;;;;;10.85;3.95;;;;;;;14.20;100.00;99617.41;5020740;28;20122;-82
2023/09/22 18:16:40;;;;;;;8.02;4.60;;;;;;;14.39;100.00;99623.69;5033152;28;20048;-81
2023/09/22 18:21:58;;;;;;;7.63;4.70;;;;;;;14.55;100.00;99622.47;5024618;28;20067;-82
2023/09/22 18:31:25;;;;;;;8.15;4.75;;;;;;;14.52;100.00;99633.41;4958612;28;20125;-82
2023/09/22 18:34:31;;;;;;;7.13;5.15;;;;;;;14.46;100.00;99634.22;4945869;28;20082;-82
2023/09/22 18:37:30;;;;;;;15.63;5.45;;;;;;;14.60;100.00;99649.00;4947751;28;20053;-82
2023/09/22 18:40:25;;;;;;;9.48;4.82;;;;;;;14.70;100.00;99661.69;4967951;28;20059;-82
2023/09/22 18:43:01;;;;;;;10.68;4.90;;;;;;;14.72;100.00;99660.47;5020093;28;20136;-82
2023/09/22 18:45:53;;;;;;;7.63;5.05;;;;;;;14.65;100.00;99640.47;5025504;28;20046;-81
2023/09/22 18:48:32;;;;;;;8.17;4.13;;;;;;;14.82;100.00;99674.03;5028939;28;20056;-82
2023/09/22 18:51:20;;;;;;;6.30;3.95;;;;;;;14.74;100.00;99662.91;5029422;28;20281;-82
2023/09/22 19:04:02;;;;;;;9.88;4.50;;;;;;;14.47;100.00;99699.03;5026964;28;20506;-82
2023/09/22 19:06:38;;;;;;;6.22;4.10;;;;;;;14.47;100.00;99699.81;5021070;28;20103;-82